Time;durP1;ratioP1;P1;durP2;ratioP2;P2;SDS_P1;SDS_P2;PMS_P1;PMS_P2;Temp;Humidity;BMP_temperature;BMP_pressure;BME280_temperature;BME280_humidity;BME280_pressure;Samples;Min_cycle;Max_cycle;Signal;HPM_P1;HPM_P2
2023/06/20 00:02:21;;;;;;;26.23;24.10;;;20.10;99.90;;;;;;5068166;28;20208;-49
2023/06/20 00:04:47;;;;;;;25.97;23.87;;;20.10;99.90;;;;;;5067883;28;20223;-47
2023/06/20 00:07:13;;;;;;;27.17;24.97;;;20.00;99.90;;;;;;5068202;28;20411;-47
2023/06/20 00:09:38;;;;;;;26.93;24.80;;;20.00;99.90;;;;;;5068248;28;20184;-44
2023/06/20 00:12:04;;;;;;;26.60;24.50;;;20.00;99.90;;;;;;5068284;28;20185;-44
2023/06/20 00:14:30;;;;;;;27.13;24.93;;;20.00;99.90;;;;;;5050019;28;20185;-50
2023/06/20 00:16:58;;;;;;;25.93;23.83;;;20.00;99.90;;;;;;5068389;28;20426;-45
2023/06/20 00:19:25;;;;;;;27.47;25.20;;;20.00;99.90;;;;;;5067971;28;20442;-44
2023/06/20 00:21:51;;;;;;;26.40;24.40;;;20.00;99.90;;;;;;5067966;28;20463;-45
2023/06/20 00:24:16;;;;;;;26.73;24.73;;;20.00;99.90;;;;;;5067977;28;20787;-50
2023/06/20 00:26:42;;;;;;;25.53;23.60;;;20.00;99.90;;;;;;5068147;28;20209;-46
2023/06/20 00:29:07;;;;;;;27.00;24.90;;;19.90;99.90;;;;;;5067927;28;20177;-48
2023/06/20 00:31:33;;;;;;;26.47;24.37;;;19.90;99.90;;;;;;5068113;28;20182;-44
2023/06/20 00:33:58;;;;;;;27.07;24.87;;;19.90;99.90;;;;;;5068506;28;20189;-45
2023/06/20 00:36:27;;;;;;;27.93;25.77;;;19.80;99.90;;;;;;5068076;28;20667;-43
2023/06/20 00:38:54;;;;;;;25.90;23.90;;;19.80;99.90;;;;;;5068239;28;20189;-45
2023/06/20 00:41:22;;;;;;;27.20;25.00;;;19.80;99.90;;;;;;5068167;28;21269;-50
2023/06/20 00:43:49;;;;;;;26.50;24.50;;;19.80;99.90;;;;;;5067855;28;20493;-44
2023/06/20 00:46:22;;;;;;;28.37;25.97;;;19.80;99.90;;;;;;5067927;28;20844;-48
2023/06/20 00:48:48;;;;;;;26.50;24.50;;;19.80;99.90;;;;;;5049623;28;20427;-45
2023/06/20 00:51:15;;;;;;;27.23;25.13;;;19.70;99.90;;;;;;5067766;28;20782;-46
2023/06/20 00:53:42;;;;;;;26.70;24.70;;;19.70;99.90;;;;;;5069550;28;20423;-44
2023/06/20 00:56:10;;;;;;;26.43;24.23;;;19.60;99.90;;;;;;5071491;28;20488;-48
2023/06/20 00:58:36;;;;;;;24.80;22.80;;;19.50;99.90;;;;;;5071182;28;20443;-49
2023/06/20 01:01:02;;;;;;;26.10;24.10;;;19.50;99.90;;;;;;5071346;28;20873;-45
2023/06/20 01:03:28;;;;;;;27.40;25.30;;;19.40;99.90;;;;;;5071119;28;20562;-49
2023/06/20 01:06:04;;;;;;;25.87;23.90;;;19.40;99.90;;;;;;5070998;28;20746;-44
2023/06/20 01:08:56;;;;;;;27.87;25.47;;;19.40;99.90;;;;;;5071033;28;20415;-47
2023/06/20 01:11:40;;;;;;;25.80;23.80;;;19.40;99.90;;;;;;5053355;28;20423;-51
2023/06/20 01:14:33;;;;;;;25.87;23.77;;;19.30;99.90;;;;;;5071106;28;20485;-48
2023/06/20 01:17:35;;;;;;;27.20;25.07;;;19.30;99.90;;;;;;5071101;28;21024;-49
2023/06/20 01:20:13;;;;;;;27.87;25.70;;;19.20;99.90;;;;;;5067018;28;20430;-47
2023/06/20 01:22:41;;;;;;;26.60;24.40;;;19.20;99.90;;;;;;5070947;28;20539;-47
2023/06/20 01:25:20;;;;;;;28.37;26.07;;;19.20;99.90;;;;;;5071003;28;20408;-47
2023/06/20 01:28:26;;;;;;;27.13;24.93;;;19.20;99.90;;;;;;5070528;28;20526;-53
2023/06/20 01:31:13;;;;;;;26.80;24.60;;;19.10;99.90;;;;;;5056471;28;20451;-49
2023/06/20 01:33:48;;;;;;;26.63;24.43;;;19.00;99.90;;;;;;5070630;28;20426;-53
2023/06/20 01:36:18;;;;;;;25.90;23.90;;;19.00;99.90;;;;;;5070487;28;20476;-52
2023/06/20 01:38:45;;;;;;;27.57;25.33;;;19.00;99.90;;;;;;5070935;28;20439;-50
2023/06/20 01:41:14;;;;;;;25.90;23.77;;;18.90;99.90;;;;;;5071140;28;20826;-51
2023/06/20 01:43:40;;;;;;;26.97;24.70;;;18.90;99.90;;;;;;5070619;28;20814;-46
2023/06/20 01:46:08;;;;;;;28.20;25.90;;;18.90;99.90;;;;;;5070660;28;20872;-51
2023/06/20 01:48:35;;;;;;;27.57;25.33;;;18.80;99.90;;;;;;5070382;28;21166;-51
2023/06/20 01:51:01;;;;;;;26.40;24.13;;;18.80;99.90;;;;;;5070658;28;20443;-49
2023/06/20 01:53:29;;;;;;;27.33;25.03;;;18.80;99.90;;;;;;5070457;28;20980;-46
2023/06/20 01:55:57;;;;;;;28.10;25.70;;;18.70;99.90;;;;;;5070364;28;20466;-48
2023/06/20 01:58:23;;;;;;;26.03;23.80;;;18.70;99.90;;;;;;5070204;28;20412;-49
2023/06/20 02:00:50;;;;;;;26.50;24.10;;;18.70;99.90;;;;;;5070231;28;20419;-49
2023/06/20 02:03:18;;;;;;;27.83;25.50;;;18.70;99.90;;;;;;5069994;28;20458;-50
2023/06/20 02:05:45;;;;;;;27.23;25.03;;;18.70;99.90;;;;;;5069284;28;20854;-46
2023/06/20 02:08:12;;;;;;;26.57;24.37;;;18.70;99.90;;;;;;5069933;28;20458;-50
2023/06/20 02:10:39;;;;;;;25.77;23.60;;;18.70;99.90;;;;;;5069903;28;20431;-50
2023/06/20 02:13:05;;;;;;;27.70;25.40;;;18.70;99.90;;;;;;5051803;28;20442;-50
2023/06/20 02:15:34;;;;;;;26.57;24.37;;;18.60;99.90;;;;;;5069965;28;20902;-49
2023/06/20 02:18:02;;;;;;;25.73;23.63;;;18.60;99.90;;;;;;5069672;28;20422;-50
2023/06/20 02:20:28;;;;;;;26.10;24.00;;;18.60;99.90;;;;;;5069694;28;20434;-53
2023/06/20 02:22:55;;;;;;;26.40;24.17;;;18.60;99.90;;;;;;5069967;28;20462;-50
2023/06/20 02:25:26;;;;;;;27.27;25.07;;;18.50;99.90;;;;;;5069613;28;20451;-49
2023/06/20 02:27:54;;;;;;;27.57;25.27;;;18.50;99.90;;;;;;5069339;28;20508;-51
2023/06/20 02:30:24;;;;;;;26.67;24.57;;;18.50;99.90;;;;;;5069491;28;20428;-52
2023/06/20 02:32:52;;;;;;;26.77;24.67;;;18.40;99.90;;;;;;5069501;28;20415;-52
2023/06/20 02:35:19;;;;;;;26.90;24.70;;;18.40;99.90;;;;;;5069487;28;20829;-53
2023/06/20 02:37:47;;;;;;;26.77;24.67;;;18.50;99.90;;;;;;5069358;28;20429;-51
2023/06/20 02:40:12;;;;;;;27.43;25.33;;;18.40;99.90;;;;;;5069300;28;20426;-51
2023/06/20 02:42:39;;;;;;;27.93;25.67;;;18.40;99.90;;;;;;5069683;28;20451;-46
2023/06/20 02:45:05;;;;;;;28.00;25.60;;;18.40;99.90;;;;;;5069169;28;20682;-51
2023/06/20 02:47:51;;;;;;;26.13;24.07;;;18.40;99.90;;;;;;5069134;28;20424;-53
2023/06/20 02:50:23;;;;;;;26.23;24.13;;;18.40;99.90;;;;;;5069373;28;20464;-49
2023/06/20 02:53:09;;;;;;;26.70;24.57;;;18.40;99.90;;;;;;5069209;28;20463;-48
2023/06/20 02:55:45;;;;;;;26.50;24.30;;;18.40;99.90;;;;;;5036113;28;20423;-49
2023/06/20 02:58:13;;;;;;;25.43;23.43;;;18.40;99.90;;;;;;5069410;28;20461;-48
2023/06/20 03:00:43;;;;;;;26.87;24.40;;;18.40;99.90;;;;;;5069374;28;20754;-48
2023/06/20 03:03:19;;;;;;;25.63;23.57;;;18.40;99.90;;;;;;5069003;28;20976;-50
2023/06/20 03:05:47;;;;;;;26.53;24.43;;;18.50;99.90;;;;;;5068379;28;20536;-45
2023/06/20 03:08:15;;;;;;;25.73;23.73;;;18.50;99.90;;;;;;5068912;28;20490;-45
2023/06/20 03:10:42;;;;;;;26.53;24.40;;;18.50;99.90;;;;;;5068730;28;20854;-46
2023/06/20 03:13:14;;;;;;;26.50;24.40;;;18.50;99.90;;;;;;5068774;28;20431;-45
2023/06/20 03:15:40;;;;;;;26.60;24.43;;;18.50;99.90;;;;;;5068944;28;20893;-45
2023/06/20 03:18:07;;;;;;;26.03;24.00;;;18.50;99.90;;;;;;5068203;28;20946;-47
2023/06/20 03:20:33;;;;;;;26.13;24.13;;;18.50;99.90;;;;;;5068639;28;20788;-43
2023/06/20 03:22:59;;;;;;;28.17;25.20;;;18.50;99.90;;;;;;5068463;28;20577;-44
2023/06/20 03:25:25;;;;;;;26.20;24.07;;;18.50;99.90;;;;;;5068640;28;20415;-45
2023/06/20 03:27:50;;;;;;;26.70;24.60;;;18.50;99.90;;;;;;5068327;28;20586;-45
2023/06/20 03:30:16;;;;;;;26.67;24.40;;;18.50;99.90;;;;;;5068575;28;20180;-49
2023/06/20 03:32:42;;;;;;;26.37;24.27;;;18.50;99.90;;;;;;5068422;28;20191;-43
2023/06/20 03:35:08;;;;;;;27.00;24.80;;;18.50;99.90;;;;;;5068182;28;20784;-50
2023/06/20 03:37:34;;;;;;;27.90;25.50;;;18.50;99.90;;;;;;5068668;28;20239;-46
2023/06/20 03:39:59;;;;;;;26.20;24.10;;;18.50;99.90;;;;;;5068560;28;20427;-45
2023/06/20 03:42:25;;;;;;;26.10;24.00;;;18.50;99.90;;;;;;5068437;28;20470;-43
2023/06/20 03:44:51;;;;;;;26.77;24.60;;;18.60;99.90;;;;;;5068582;28;20183;-44
2023/06/20 03:47:17;;;;;;;26.80;24.50;;;18.60;99.90;;;;;;5068115;28;20207;-45
2023/06/20 03:49:43;;;;;;;27.43;25.13;;;18.60;99.90;;;;;;5068435;28;20231;-47
2023/06/20 03:52:08;;;;;;;27.07;24.77;;;18.60;99.90;;;;;;5068206;28;20802;-46
2023/06/20 03:54:34;;;;;;;25.30;23.20;;;18.70;99.90;;;;;;5068419;28;20188;-48
2023/06/20 03:57:01;;;;;;;26.20;24.00;;;18.70;99.90;;;;;;5068338;28;20185;-46
2023/06/20 03:59:27;;;;;;;24.90;22.90;;;18.80;99.90;;;;;;5068929;28;20424;-47
2023/06/20 04:01:52;;;;;;;27.50;25.10;;;18.80;99.90;;;;;;5068045;28;20777;-45
2023/06/20 04:04:18;;;;;;;25.90;23.80;;;18.80;99.90;;;;;;5068595;28;20196;-48
2023/06/20 04:06:49;;;;;;;25.47;23.40;;;18.90;99.90;;;;;;5067955;28;20261;-46
2023/06/20 04:09:16;;;;;;;25.50;23.30;;;18.90;99.90;;;;;;5068532;28;20173;-45
2023/06/20 04:11:42;;;;;;;25.10;23.27;;;19.00;99.90;;;;;;5068193;28;20428;-46
2023/06/20 04:14:07;;;;;;;24.43;22.57;;;19.10;99.90;;;;;;5068665;28;20422;-46
2023/06/20 04:16:33;;;;;;;24.97;22.97;;;19.10;99.90;;;;;;5067953;28;20185;-45
2023/06/20 04:18:58;;;;;;;24.57;22.77;;;19.20;99.90;;;;;;5068216;28;20238;-48
2023/06/20 04:21:24;;;;;;;24.20;22.30;;;19.10;99.90;;;;;;5068213;28;20188;-43
2023/06/20 04:23:50;;;;;;;25.13;23.13;;;19.20;99.90;;;;;;5068095;28;20205;-50
2023/06/20 04:26:15;;;;;;;24.40;22.40;;;19.20;99.90;;;;;;5067882;28;20181;-43
2023/06/20 04:28:41;;;;;;;24.57;22.67;;;19.30;99.90;;;;;;5069927;28;20181;-46
2023/06/20 04:31:06;;;;;;;25.00;23.00;;;19.40;99.90;;;;;;5071594;28;20180;-46
2023/06/20 04:33:32;;;;;;;23.73;22.00;;;19.30;99.90;;;;;;5071840;28;20185;-50
2023/06/20 04:35:58;;;;;;;24.37;22.27;;;19.40;99.90;;;;;;5071658;28;20181;-46
2023/06/20 04:38:23;;;;;;;23.77;21.93;;;19.50;99.90;;;;;;5071755;28;20177;-44
2023/06/20 04:40:49;;;;;;;26.03;24.00;;;19.60;99.90;;;;;;5071760;28;20258;-46
2023/06/20 04:43:14;;;;;;;24.73;22.73;;;19.60;99.90;;;;;;5071329;28;20216;-45
2023/06/20 04:45:40;;;;;;;23.90;21.93;;;19.70;99.90;;;;;;5071149;28;20218;-44
2023/06/20 04:48:06;;;;;;;23.53;21.73;;;19.80;99.90;;;;;;5071692;28;20238;-44
2023/06/20 04:50:32;;;;;;;22.27;20.47;;;20.00;99.90;;;;;;5071883;28;20184;-46
2023/06/20 04:52:57;;;;;;;23.00;21.20;;;20.20;99.90;;;;;;5071696;28;20216;-47
2023/06/20 04:55:23;;;;;;;24.37;22.57;;;20.40;99.90;;;;;;5071301;28;20450;-47
2023/06/20 04:57:48;;;;;;;23.90;22.10;;;20.50;99.90;;;;;;5071176;28;20659;-44
2023/06/20 05:00:15;;;;;;;24.60;22.70;;;20.60;99.90;;;;;;5071561;28;20294;-45
2023/06/20 05:02:44;;;;;;;24.40;22.40;;;20.80;99.90;;;;;;5071198;28;20207;-42
2023/06/20 05:05:10;;;;;;;23.63;21.83;;;20.90;99.90;;;;;;5070929;28;20524;-48
2023/06/20 05:07:39;;;;;;;25.33;23.37;;;21.10;99.90;;;;;;5071281;28;20404;-46
2023/06/20 05:10:05;;;;;;;24.53;22.70;;;21.30;99.90;;;;;;5071024;28;21083;-45
2023/06/20 05:12:32;;;;;;;22.30;20.50;;;21.50;99.90;;;;;;5070849;28;20451;-44
2023/06/20 05:14:59;;;;;;;22.53;20.90;;;21.80;99.90;;;;;;5070814;28;20472;-46
2023/06/20 05:17:24;;;;;;;25.03;23.03;;;22.10;99.90;;;;;;5071316;28;20431;-44
2023/06/20 05:19:50;;;;;;;23.30;21.50;;;22.20;99.90;;;;;;5070747;28;20415;-51
2023/06/20 05:22:15;;;;;;;23.73;22.00;;;22.40;99.90;;;;;;5070706;28;20227;-45
2023/06/20 05:24:42;;;;;;;22.40;20.80;;;22.50;99.90;;;;;;5070807;28;20173;-47
2023/06/20 05:27:07;;;;;;;23.70;22.00;;;22.60;99.90;;;;;;5070796;28;20624;-49
2023/06/20 05:29:33;;;;;;;23.27;21.67;;;22.70;99.90;;;;;;5070300;28;20444;-50
2023/06/20 05:31:58;;;;;;;23.50;21.87;;;22.80;99.90;;;;;;5070821;28;20193;-49
2023/06/20 05:34:24;;;;;;;23.83;22.23;;;22.90;99.90;;;;;;5070586;28;20260;-44
2023/06/20 05:36:49;;;;;;;22.90;21.20;;;23.10;99.90;;;;;;5070556;28;20205;-43
2023/06/20 05:39:15;;;;;;;22.53;20.80;;;23.20;99.90;;;;;;5069749;28;20199;-47
2023/06/20 05:41:44;;;;;;;23.03;21.40;;;23.30;99.90;;;;;;5070158;28;20184;-49
2023/06/20 05:44:09;;;;;;;22.37;20.77;;;23.40;99.90;;;;;;5070088;28;20185;-46
2023/06/20 05:46:35;;;;;;;23.37;21.77;;;23.30;99.90;;;;;;5070377;28;20426;-47
2023/06/20 05:49:00;;;;;;;21.20;19.70;;;23.40;99.90;;;;;;5070462;28;20264;-49
2023/06/20 05:51:29;;;;;;;21.10;19.60;;;23.40;99.90;;;;;;5071156;28;20254;-45
2023/06/20 05:53:57;;;;;;;21.60;20.10;;;23.50;99.90;;;;;;5070336;28;20192;-43
2023/06/20 05:56:23;;;;;;;21.97;20.43;;;23.40;99.90;;;;;;5070339;28;20510;-51
2023/06/20 05:58:48;;;;;;;23.50;21.80;;;23.50;99.70;;;;;;5069980;28;20427;-47
2023/06/20 06:01:14;;;;;;;21.63;20.13;;;23.60;99.60;;;;;;5070995;28;20427;-50
2023/06/20 06:03:40;;;;;;;21.10;19.60;;;23.60;99.30;;;;;;5069980;28;20200;-49
2023/06/20 06:06:09;;;;;;;22.47;20.97;;;23.70;99.10;;;;;;5069921;28;20225;-47
2023/06/20 06:08:35;;;;;;;21.73;20.17;;;23.80;99.20;;;;;;5070261;28;20177;-44
2023/06/20 06:11:00;;;;;;;22.13;20.53;;;23.90;99.10;;;;;;5069959;28;20490;-45
2023/06/20 06:13:27;;;;;;;22.90;21.20;;;23.90;98.40;;;;;;5069514;28;20233;-47
2023/06/20 06:15:52;;;;;;;23.10;21.27;;;24.00;98.60;;;;;;5069993;28;20184;-45
2023/06/20 06:18:18;;;;;;;23.07;21.50;;;24.00;98.40;;;;;;5069545;28;20407;-47
2023/06/20 06:20:44;;;;;;;21.20;19.73;;;24.10;98.40;;;;;;5069771;28;20543;-45
2023/06/20 06:23:09;;;;;;;22.67;21.07;;;24.10;97.80;;;;;;5069580;28;20209;-48
2023/06/20 06:25:35;;;;;;;22.03;20.40;;;24.10;97.40;;;;;;5069681;28;20530;-48
2023/06/20 06:28:00;;;;;;;22.17;20.67;;;24.20;97.30;;;;;;5069322;28;20319;-49
2023/06/20 06:30:26;;;;;;;23.27;21.67;;;24.10;96.90;;;;;;5069358;28;20181;-45
2023/06/20 06:32:51;;;;;;;21.03;19.53;;;24.20;97.10;;;;;;5069643;28;20196;-47
2023/06/20 06:35:18;;;;;;;21.37;19.87;;;24.30;97.10;;;;;;5069464;28;20562;-44
2023/06/20 06:37:44;;;;;;;23.13;21.43;;;24.30;97.10;;;;;;5069269;28;20548;-49
2023/06/20 06:40:11;;;;;;;22.10;20.50;;;24.40;96.90;;;;;;5069397;28;20434;-47
2023/06/20 06:42:37;;;;;;;21.50;20.00;;;24.50;96.70;;;;;;5069005;28;20458;-47
2023/06/20 06:45:03;;;;;;;22.57;21.03;;;24.50;96.50;;;;;;5069278;28;20416;-49
2023/06/20 06:47:29;;;;;;;21.90;20.40;;;24.60;96.40;;;;;;5069197;28;20628;-46
2023/06/20 06:49:55;;;;;;;23.20;21.50;;;24.60;96.20;;;;;;5069292;28;20498;-48
2023/06/20 06:52:20;;;;;;;23.63;22.03;;;24.60;95.80;;;;;;5069237;28;20184;-46
2023/06/20 06:54:46;;;;;;;21.90;20.20;;;24.70;95.90;;;;;;5069115;28;20181;-46
2023/06/20 06:57:12;;;;;;;22.60;20.90;;;24.70;96.00;;;;;;5069050;28;20181;-49
2023/06/20 06:59:37;;;;;;;22.50;21.00;;;24.70;95.80;;;;;;5068975;28;20185;-47
2023/06/20 07:02:05;;;;;;;21.90;20.30;;;24.80;96.10;;;;;;5068894;28;20201;-43
2023/06/20 07:04:31;;;;;;;22.17;20.63;;;24.80;96.00;;;;;;5068799;28;20173;-48
2023/06/20 07:06:56;;;;;;;22.87;21.30;;;24.80;95.90;;;;;;5069045;28;20426;-47
2023/06/20 07:09:22;;;;;;;22.60;21.00;;;24.80;96.00;;;;;;5068817;28;20474;-52
2023/06/20 07:11:47;;;;;;;21.90;20.37;;;24.90;95.90;;;;;;5068730;28;20257;-51
2023/06/20 07:14:14;;;;;;;22.13;20.53;;;24.90;95.90;;;;;;5068830;28;20726;-52
2023/06/20 07:16:39;;;;;;;22.40;20.80;;;24.90;96.00;;;;;;5068612;28;20256;-48
2023/06/20 07:19:05;;;;;;;22.20;20.70;;;24.90;96.10;;;;;;5068741;28;20526;-50
2023/06/20 07:21:30;;;;;;;22.43;20.87;;;25.10;96.10;;;;;;5068714;28;20256;-49
2023/06/20 07:23:56;;;;;;;22.63;21.07;;;25.30;95.90;;;;;;5068836;28;20694;-49
2023/06/20 07:26:22;;;;;;;21.93;20.43;;;25.50;95.30;;;;;;5068621;28;20243;-48
2023/06/20 07:28:47;;;;;;;24.07;22.37;;;25.70;95.20;;;;;;5068457;28;20187;-47
2023/06/20 07:31:18;;;;;;;22.57;20.97;;;25.80;94.40;;;;;;5050648;28;20188;-51
2023/06/20 07:33:43;;;;;;;24.00;22.20;;;25.80;94.10;;;;;;5068438;28;20967;-47
2023/06/20 07:36:09;;;;;;;22.90;21.40;;;25.90;93.60;;;;;;5068452;28;20477;-46
2023/06/20 07:38:35;;;;;;;22.20;20.50;;;25.90;93.20;;;;;;5050266;28;20222;-47
2023/06/20 07:41:00;;;;;;;21.40;20.00;;;26.10;93.20;;;;;;5068635;28;20196;-48
2023/06/20 07:43:26;;;;;;;23.00;21.50;;;26.10;92.70;;;;;;5068820;28;20262;-49
2023/06/20 07:45:51;;;;;;;22.67;21.07;;;26.30;92.80;;;;;;5068314;28;20264;-50
2023/06/20 07:48:17;;;;;;;23.00;21.30;;;26.50;92.50;;;;;;5068328;28;20276;-46
2023/06/20 07:50:43;;;;;;;21.10;19.70;;;26.70;92.00;;;;;;5068398;28;20189;-49
2023/06/20 07:53:08;;;;;;;23.00;21.60;;;26.90;91.30;;;;;;5068279;28;20538;-47
2023/06/20 07:55:34;;;;;;;22.90;21.40;;;27.20;91.10;;;;;;5050295;28;20189;-46
2023/06/20 07:58:00;;;;;;;22.20;20.73;;;27.40;90.30;;;;;;5068455;28;20223;-49
2023/06/20 08:00:26;;;;;;;22.23;20.83;;;27.50;89.50;;;;;;5068130;28;20212;-48
2023/06/20 08:02:52;;;;;;;22.90;21.37;;;27.70;87.70;;;;;;5068901;28;20291;-46
2023/06/20 08:05:17;;;;;;;23.20;21.70;;;27.80;85.80;;;;;;5071901;28;20563;-45
2023/06/20 08:07:43;;;;;;;22.83;20.90;;;27.80;85.70;;;;;;5072533;28;20422;-49
2023/06/20 08:10:10;;;;;;;21.73;20.20;;;28.00;84.40;;;;;;5072145;28;20205;-49
2023/06/20 08:12:37;;;;;;;21.43;20.03;;;28.10;84.90;;;;;;5072539;28;20700;-47
2023/06/20 08:15:02;;;;;;;22.67;21.07;;;28.20;84.20;;;;;;5072449;28;20487;-51
2023/06/20 08:17:28;;;;;;;23.13;21.57;;;28.30;83.00;;;;;;5072040;28;20453;-49
2023/06/20 08:19:54;;;;;;;21.83;20.43;;;28.40;82.10;;;;;;5071963;28;20209;-48
2023/06/20 08:22:19;;;;;;;23.30;21.70;;;28.40;81.60;;;;;;5072098;28;20212;-49
2023/06/20 08:24:45;;;;;;;23.43;22.03;;;28.40;80.60;;;;;;5072069;28;20568;-48
2023/06/20 08:27:10;;;;;;;23.10;21.60;;;28.20;80.60;;;;;;5072055;28;20178;-50
2023/06/20 08:29:36;;;;;;;22.77;21.17;;;28.00;81.40;;;;;;5071568;28;20600;-49
2023/06/20 08:32:02;;;;;;;23.23;21.53;;;28.00;81.90;;;;;;5071773;28;20643;-46
2023/06/20 08:34:27;;;;;;;24.20;22.70;;;28.00;82.00;;;;;;5071672;28;20298;-50
2023/06/20 08:36:53;;;;;;;22.63;21.13;;;28.10;81.50;;;;;;5071695;28;20195;-49
2023/06/20 08:39:19;;;;;;;23.40;21.90;;;28.10;83.60;;;;;;5071535;28;20272;-46
2023/06/20 08:41:45;;;;;;;23.50;22.00;;;28.10;83.20;;;;;;5071664;28;20419;-47
2023/06/20 08:44:11;;;;;;;24.57;22.97;;;28.10;82.90;;;;;;5071547;28;20431;-49
2023/06/20 08:46:37;;;;;;;24.33;22.63;;;28.10;84.60;;;;;;5071385;28;20196;-50
2023/06/20 08:49:03;;;;;;;24.10;22.50;;;28.10;85.80;;;;;;5071366;28;20181;-49
2023/06/20 08:51:30;;;;;;;22.80;20.97;;;28.10;83.80;;;;;;5071556;28;20510;-47
2023/06/20 08:53:57;;;;;;;24.27;22.67;;;28.20;85.10;;;;;;5071375;28;20173;-49
2023/06/20 08:56:23;;;;;;;24.23;22.63;;;28.20;84.20;;;;;;5071443;28;20419;-54
2023/06/20 08:58:49;;;;;;;23.03;21.43;;;28.30;85.00;;;;;;5071358;28;20917;-53
2023/06/20 09:01:14;;;;;;;22.50;21.00;;;28.40;85.70;;;;;;5071239;28;20419;-51
2023/06/20 09:03:40;;;;;;;24.03;22.53;;;28.40;84.60;;;;;;5053152;28;20209;-51
2023/06/20 09:06:06;;;;;;;23.83;22.17;;;28.50;83.00;;;;;;5070885;28;20225;-49
2023/06/20 09:08:40;;;;;;;24.00;22.37;;;28.60;83.30;;;;;;5071372;28;20477;-51
2023/06/20 09:11:11;;;;;;;22.57;20.97;;;28.60;83.00;;;;;;5071401;28;20427;-49
2023/06/20 09:13:37;;;;;;;23.43;21.90;;;28.50;82.80;;;;;;5070965;28;20423;-53
2023/06/20 09:16:07;;;;;;;21.13;19.73;;;28.30;83.10;;;;;;5069806;28;20441;-49
2023/06/20 09:18:34;;;;;;;21.07;19.77;;;28.30;80.90;;;;;;5070825;28;20411;-48
2023/06/20 09:21:03;;;;;;;21.00;19.50;;;28.20;81.90;;;;;;5070844;28;20419;-48
2023/06/20 09:23:33;;;;;;;20.00;18.60;;;28.20;81.70;;;;;;5070934;28;20463;-49
2023/06/20 09:26:16;;;;;;;19.80;18.60;;;28.20;81.80;;;;;;5070836;28;20422;-52
2023/06/20 09:28:42;;;;;;;21.63;20.20;;;28.20;82.20;;;;;;5070743;28;20427;-52
2023/06/20 09:31:08;;;;;;;20.00;18.70;;;28.30;83.50;;;;;;5070751;28;20434;-47
2023/06/20 09:33:37;;;;;;;19.87;18.67;;;28.50;82.60;;;;;;5070609;28;20423;-50
2023/06/20 09:36:17;;;;;;;19.67;18.40;;;28.70;83.00;;;;;;5070539;28;20207;-48
2023/06/20 09:38:51;;;;;;;18.40;17.07;;;28.70;79.70;;;;;;5070754;28;20891;-49
2023/06/20 09:41:17;;;;;;;17.53;16.53;;;28.70;79.90;;;;;;5070593;28;20415;-49
2023/06/20 09:43:44;;;;;;;18.73;17.53;;;28.80;79.40;;;;;;5070376;28;20796;-49
2023/06/20 09:46:09;;;;;;;19.00;17.80;;;28.80;79.70;;;;;;5070421;28;20666;-53
2023/06/20 09:48:37;;;;;;;17.63;16.63;;;28.90;78.00;;;;;;5070252;28;20423;-49
2023/06/20 09:51:04;;;;;;;18.43;17.33;;;28.90;76.80;;;;;;5070504;28;20209;-51
2023/06/20 09:53:42;;;;;;;17.83;16.73;;;29.00;76.10;;;;;;5070348;28;20479;-51
2023/06/20 09:56:10;;;;;;;18.63;17.40;;;28.90;77.70;;;;;;5070212;28;20419;-50
2023/06/20 09:58:37;;;;;;;16.70;15.70;;;28.80;77.40;;;;;;5070243;28;20484;-43
2023/06/20 10:01:04;;;;;;;18.33;17.13;;;28.90;76.90;;;;;;5070051;28;20420;-49
2023/06/20 10:03:31;;;;;;;17.90;16.70;;;28.40;76.50;;;;;;5069858;28;20459;-46
2023/06/20 10:05:59;;;;;;;17.30;16.30;;;28.20;79.20;;;;;;5069800;28;20470;-50
2023/06/20 10:08:26;;;;;;;17.63;16.53;;;28.10;79.80;;;;;;5070098;28;20920;-48
2023/06/20 10:10:51;;;;;;;17.93;16.80;;;28.10;80.80;;;;;;5070079;28;20426;-49
2023/06/20 10:13:17;;;;;;;18.00;16.90;;;28.20;81.70;;;;;;5069890;28;20423;-49
2023/06/20 10:15:43;;;;;;;18.50;17.40;;;28.20;82.20;;;;;;5069973;28;20267;-45
2023/06/20 10:18:31;;;;;;;19.07;17.83;;;28.30;82.10;;;;;;5069950;28;20596;-49
2023/06/20 10:20:57;;;;;;;18.13;17.00;;;28.30;82.10;;;;;;5069848;28;20238;-47
2023/06/20 10:23:30;;;;;;;18.60;17.40;;;28.30;81.60;;;;;;5069615;28;21007;-45
2023/06/20 10:25:58;;;;;;;19.90;18.60;;;28.30;83.00;;;;;;5069244;28;20655;-49
2023/06/20 10:28:24;;;;;;;18.20;17.10;;;28.20;82.40;;;;;;5069642;28;20791;-49
2023/06/20 10:30:50;;;;;;;16.90;15.90;;;28.30;81.90;;;;;;5069728;28;20422;-49
2023/06/20 10:33:37;;;;;;;19.17;17.87;;;28.30;81.40;;;;;;5069643;28;20419;-45
2023/06/20 10:36:12;;;;;;;19.47;18.27;;;28.20;81.30;;;;;;5069084;28;20204;-49
2023/06/20 10:39:00;;;;;;;19.10;17.80;;;28.20;81.00;;;;;;5069572;28;20427;-45
2023/06/20 10:41:27;;;;;;;19.20;17.90;;;28.30;81.60;;;;;;5069298;28;20423;-50
2023/06/20 10:43:57;;;;;;;18.80;17.60;;;28.20;81.90;;;;;;5051278;28;20466;-47
2023/06/20 10:46:46;;;;;;;18.50;17.30;;;28.30;82.70;;;;;;5069114;28;20828;-48
2023/06/20 10:49:12;;;;;;;18.00;16.90;;;28.40;81.50;;;;;;5069132;28;20905;-48
2023/06/20 10:51:52;;;;;;;18.47;17.07;;;28.40;81.30;;;;;;5068905;28;20422;-51
2023/06/20 10:54:20;;;;;;;20.60;19.30;;;28.30;81.70;;;;;;5069214;28;20255;-47
2023/06/20 10:56:48;;;;;;;19.47;18.27;;;28.50;81.80;;;;;;5069164;28;20951;-52
2023/06/20 10:59:18;;;;;;;19.40;18.30;;;28.60;81.40;;;;;;5069080;28;20447;-47
2023/06/20 11:01:44;;;;;;;19.80;18.50;;;28.80;80.90;;;;;;5068864;28;20820;-50
2023/06/20 11:04:12;;;;;;;19.47;18.27;;;28.30;80.20;;;;;;5069285;28;20463;-48
2023/06/20 11:06:38;;;;;;;20.10;18.70;;;28.20;82.50;;;;;;5068433;28;20463;-51
2023/06/20 11:09:05;;;;;;;20.47;19.17;;;28.30;81.90;;;;;;5068894;28;20403;-44
2023/06/20 11:11:34;;;;;;;21.20;19.70;;;28.50;79.90;;;;;;5068718;28;20411;-46
2023/06/20 11:14:14;;;;;;;20.30;19.07;;;28.40;80.90;;;;;;5069306;28;21076;-49
2023/06/20 11:16:41;;;;;;;19.23;18.03;;;28.30;82.70;;;;;;5068773;28;20411;-45
2023/06/20 11:19:07;;;;;;;20.37;19.10;;;28.50;80.90;;;;;;5068863;28;20415;-43
2023/06/20 11:21:33;;;;;;;20.97;19.57;;;28.50;81.20;;;;;;5068373;28;20446;-48
2023/06/20 11:24:00;;;;;;;20.40;18.80;;;28.60;80.30;;;;;;5068759;28;20284;-45
2023/06/20 11:26:32;;;;;;;19.93;18.73;;;28.70;80.60;;;;;;5068607;28;20870;-48
2023/06/20 11:29:02;;;;;;;21.40;20.10;;;28.80;79.40;;;;;;5068397;28;20854;-45
2023/06/20 11:31:28;;;;;;;20.50;19.20;;;28.70;79.40;;;;;;5068649;28;20418;-46
2023/06/20 11:34:04;;;;;;;20.20;18.90;;;28.80;79.70;;;;;;5068644;28;20420;-46
2023/06/20 11:36:32;;;;;;;19.70;18.50;;;28.90;79.00;;;;;;5068226;28;20181;-47
2023/06/20 11:39:09;;;;;;;20.83;19.53;;;29.00;78.70;;;;;;5067705;28;20423;-47
2023/06/20 11:41:35;;;;;;;20.50;19.20;;;29.10;78.60;;;;;;5068562;28;20721;-44
2023/06/20 11:44:04;;;;;;;20.07;18.87;;;29.00;79.30;;;;;;5068358;28;20493;-48
2023/06/20 11:46:29;;;;;;;20.43;19.07;;;29.10;80.90;;;;;;5068501;28;20415;-44
2023/06/20 11:48:59;;;;;;;20.20;19.00;;;29.20;80.70;;;;;;5068170;28;20411;-45
2023/06/20 11:51:25;;;;;;;19.53;18.33;;;29.30;80.40;;;;;;5068697;28;20236;-50
2023/06/20 11:54:08;;;;;;;20.20;18.97;;;29.40;78.90;;;;;;5068640;28;20516;-44
2023/06/20 11:56:33;;;;;;;20.50;19.30;;;29.40;77.20;;;;;;5068212;28;20423;-45
2023/06/20 11:58:59;;;;;;;20.00;18.70;;;29.40;77.70;;;;;;5068215;28;20423;-44
2023/06/20 12:01:25;;;;;;;20.20;19.00;;;29.30;78.20;;;;;;5068456;28;20255;-51
2023/06/20 12:04:07;;;;;;;19.40;18.20;;;29.30;78.20;;;;;;5068679;28;20311;-46
2023/06/20 12:06:37;;;;;;;20.17;18.77;;;29.40;77.60;;;;;;5067782;28;20467;-46
2023/06/20 12:09:02;;;;;;;19.57;18.37;;;29.30;77.90;;;;;;5068367;28;20908;-47
2023/06/20 12:11:29;;;;;;;19.63;18.43;;;29.20;77.60;;;;;;5068049;28;20411;-47
2023/06/20 12:13:55;;;;;;;18.90;17.70;;;29.20;77.90;;;;;;5068320;28;20574;-49
2023/06/20 12:16:21;;;;;;;19.93;18.70;;;29.20;77.40;;;;;;5068309;28;20898;-49
2023/06/20 12:18:48;;;;;;;20.67;19.17;;;29.30;77.20;;;;;;5050133;28;20564;-45
2023/06/20 12:21:14;;;;;;;19.43;18.20;;;29.30;76.40;;;;;;5068128;28;20743;-49
2023/06/20 12:23:40;;;;;;;19.57;18.37;;;29.40;77.80;;;;;;5068050;28;20462;-48
2023/06/20 12:26:07;;;;;;;19.53;18.23;;;29.60;77.10;;;;;;5067996;28;20423;-50
2023/06/20 12:28:33;;;;;;;19.07;17.87;;;29.90;75.20;;;;;;5067849;28;20181;-49
2023/06/20 12:31:01;;;;;;;22.07;20.47;;;30.20;74.70;;;;;;5067854;28;20434;-47
2023/06/20 12:33:27;;;;;;;19.57;18.37;;;30.50;73.50;;;;;;5068088;28;20177;-47